sensor_id;sensor_type;location;lat;lon;timestamp;pressure;altitude;pressure_sealevel;temperature;humidity
22047;BME280;11187;49.412;20.956;2023-02-22T00:01:24;94842.78;;;2.67;100.00
22047;BME280;11187;49.412;20.956;2023-02-22T00:04:06;94836.03;;;2.63;100.00
22047;BME280;11187;49.412;20.956;2023-02-22T00:06:47;94844.44;;;2.62;100.00
22047;BME280;11187;49.412;20.956;2023-02-22T00:09:28;94841.06;;;2.60;100.00
22047;BME280;11187;49.412;20.956;2023-02-22T00:12:08;94846.97;;;2.59;100.00
22047;BME280;11187;49.412;20.956;2023-02-22T00:14:48;94852.84;;;2.60;100.00
22047;BME280;11187;49.412;20.956;2023-02-22T00:17:22;94848.66;;;2.62;100.00
22047;BME280;11187;49.412;20.956;2023-02-22T00:20:10;94841.91;;;2.61;100.00
22047;BME280;11187;49.412;20.956;2023-02-22T00:22:46;94836.84;;;2.59;100.00
22047;BME280;11187;49.412;20.956;2023-02-22T00:25:34;94843.56;;;2.59;100.00
22047;BME280;11187;49.412;20.956;2023-02-22T00:28:07;94841.88;;;2.58;100.00
22047;BME280;11187;49.412;20.956;2023-02-22T00:30:54;94848.59;;;2.56;100.00
22047;BME280;11187;49.412;20.956;2023-02-22T00:33:27;94851.09;;;2.51;100.00
22047;BME280;11187;49.412;20.956;2023-02-22T00:36:22;94858.66;;;2.48;100.00
22047;BME280;11187;49.412;20.956;2023-02-22T00:39:16;94860.28;;;2.43;100.00
22047;BME280;11187;49.412;20.956;2023-02-22T00:42:10;94867.84;;;2.40;100.00
22047;BME280;11187;49.412;20.956;2023-02-22T00:44:44;94867.81;;;2.37;100.00
22047;BME280;11187;49.412;20.956;2023-02-22T00:47:30;94871.16;;;2.36;100.00
22047;BME280;11187;49.412;20.956;2023-02-22T00:50:04;94872.03;;;2.35;100.00
22047;BME280;11187;49.412;20.956;2023-02-22T00:52:52;94872.84;;;2.34;100.00
22047;BME280;11187;49.412;20.956;2023-02-22T00:55:28;94870.34;;;2.35;100.00
22047;BME280;11187;49.412;20.956;2023-02-22T00:58:22;94876.22;;;2.36;100.00
22047;BME280;11187;49.412;20.956;2023-02-22T01:00:56;94884.63;;;2.36;100.00
22047;BME280;11187;49.412;20.956;2023-02-22T01:03:50;94882.97;;;2.35;100.00
22047;BME280;11187;49.412;20.956;2023-02-22T01:06:23;94888.03;;;2.37;100.00
22047;BME280;11187;49.412;20.956;2023-02-22T01:09:17;94887.19;;;2.38;100.00
22047;BME280;11187;49.412;20.956;2023-02-22T01:11:54;94893.97;;;2.39;100.00
22047;BME280;11187;49.412;20.956;2023-02-22T01:14:48;94891.44;;;2.39;100.00
22047;BME280;11187;49.412;20.956;2023-02-22T01:17:45;94883.84;;;2.39;100.00
22047;BME280;11187;49.412;20.956;2023-02-22T01:20:21;94887.19;;;2.38;100.00
22047;BME280;11187;49.412;20.956;2023-02-22T01:23:08;94894.78;;;2.39;100.00
22047;BME280;11187;49.412;20.956;2023-02-22T01:25:43;94888.91;;;2.40;100.00
22047;BME280;11187;49.412;20.956;2023-02-22T01:28:37;94885.53;;;2.40;100.00
22047;BME280;11187;49.412;20.956;2023-02-22T01:31:31;94884.72;;;2.44;100.00
22047;BME280;11187;49.412;20.956;2023-02-22T01:34:25;94879.69;;;2.45;100.00
22047;BME280;11187;49.412;20.956;2023-02-22T01:36:59;94885.59;;;2.47;100.00
22047;BME280;11187;49.412;20.956;2023-02-22T01:39:46;94878.06;;;2.50;100.00
22047;BME280;11187;49.412;20.956;2023-02-22T01:42:19;94880.59;;;2.50;100.00
22047;BME280;11187;49.412;20.956;2023-02-22T01:48:11;94884.78;;;2.50;100.00
22047;BME280;11187;49.412;20.956;2023-02-22T01:51:18;94891.50;;;2.49;100.00
22047;BME280;11187;49.412;20.956;2023-02-22T01:54:02;94886.47;;;2.48;100.00
22047;BME280;11187;49.412;20.956;2023-02-22T01:57:04;94883.09;;;2.49;100.00
22047;BME280;11187;49.412;20.956;2023-02-22T01:59:43;94884.78;;;2.50;100.00
22047;BME280;11187;49.412;20.956;2023-02-22T02:02:43;94883.09;;;2.50;100.00
22047;BME280;11187;49.412;20.956;2023-02-22T02:05:38;94889.00;;;2.51;100.00
22047;BME280;11187;49.412;20.956;2023-02-22T02:08:30;94882.25;;;2.51;100.00
22047;BME280;11187;49.412;20.956;2023-02-22T02:11:21;94883.94;;;2.51;100.00
22047;BME280;11187;49.412;20.956;2023-02-22T02:13:56;94889.00;;;2.51;100.00
22047;BME280;11187;49.412;20.956;2023-02-22T02:16:52;94880.56;;;2.49;100.00
22047;BME280;11187;49.412;20.956;2023-02-22T02:20:04;94876.34;;;2.49;100.00
22047;BME280;11187;49.412;20.956;2023-02-22T02:22:46;94869.59;;;2.47;100.00
22047;BME280;11187;49.412;20.956;2023-02-22T02:34:48;94868.75;;;2.46;100.00
22047;BME280;11187;49.412;20.956;2023-02-22T02:41:02;94872.94;;;2.44;100.00
22047;BME280;11187;49.412;20.956;2023-02-22T02:44:25;94870.44;;;2.46;100.00
22047;BME280;11187;49.412;20.956;2023-02-22T02:47:28;94876.31;;;2.45;100.00
22047;BME280;11187;49.412;20.956;2023-02-22T02:50:10;94882.22;;;2.44;100.00
22047;BME280;11187;49.412;20.956;2023-02-22T02:53:02;94883.03;;;2.43;100.00
22047;BME280;11187;49.412;20.956;2023-02-22T02:55:36;94895.66;;;2.43;100.00
22047;BME280;11187;49.412;20.956;2023-02-22T02:58:30;94894.81;;;2.42;100.00
22047;BME280;11187;49.412;20.956;2023-02-22T03:01:03;94885.53;;;2.40;100.00
22047;BME280;11187;49.412;20.956;2023-02-22T03:09:55;94889.75;;;2.42;100.00
22047;BME280;11187;49.412;20.956;2023-02-22T03:25:33;94902.38;;;2.39;100.00
22047;BME280;11187;49.412;20.956;2023-02-22T03:28:29;94899.84;;;2.39;100.00
22047;BME280;11187;49.412;20.956;2023-02-22T03:31:34;94910.78;;;2.40;100.00
22047;BME280;11187;49.412;20.956;2023-02-22T03:34:38;94902.38;;;2.39;100.00
22047;BME280;11187;49.412;20.956;2023-02-22T03:37:38;94904.91;;;2.39;100.00
22047;BME280;11187;49.412;20.956;2023-02-22T03:40:36;94905.75;;;2.40;100.00
22047;BME280;11187;49.412;20.956;2023-02-22T03:43:37;94909.97;;;2.42;100.00
22047;BME280;11187;49.412;20.956;2023-02-22T03:46:12;94908.28;;;2.41;100.00
22047;BME280;11187;49.412;20.956;2023-02-22T03:49:15;94913.34;;;2.41;100.00
22047;BME280;11187;49.412;20.956;2023-02-22T03:51:49;94909.97;;;2.42;100.00
22047;BME280;11187;49.412;20.956;2023-02-22T03:54:43;94908.28;;;2.43;100.00
22047;BME280;11187;49.412;20.956;2023-02-22T03:57:42;94912.53;;;2.44;100.00
22047;BME280;11187;49.412;20.956;2023-02-22T04:00:34;94914.22;;;2.45;100.00
22047;BME280;11187;49.412;20.956;2023-02-22T04:03:30;94919.25;;;2.45;100.00
22047;BME280;11187;49.412;20.956;2023-02-22T04:06:07;94918.41;;;2.44;100.00
22047;BME280;11187;49.412;20.956;2023-02-22T04:09:01;94926.00;;;2.44;100.00
22047;BME280;11187;49.412;20.956;2023-02-22T04:12:03;94923.47;;;2.44;100.00
22047;BME280;11187;49.412;20.956;2023-02-22T04:14:57;94924.31;;;2.45;100.00
22047;BME280;11187;49.412;20.956;2023-02-22T04:17:51;94923.50;;;2.46;100.00
22047;BME280;11187;49.412;20.956;2023-02-22T04:20:45;94920.94;;;2.44;100.00
22047;BME280;11187;49.412;20.956;2023-02-22T04:23:18;94921.78;;;2.45;100.00
22047;BME280;11187;49.412;20.956;2023-02-22T04:26:05;94926.03;;;2.46;100.00
22047;BME280;11187;49.412;20.956;2023-02-22T04:28:38;94923.50;;;2.46;100.00
22047;BME280;11187;49.412;20.956;2023-02-22T04:31:25;94918.44;;;2.46;100.00
22047;BME280;11187;49.412;20.956;2023-02-22T04:33:59;94920.13;;;2.45;100.00
22047;BME280;11187;49.412;20.956;2023-02-22T04:36:46;94926.84;;;2.45;100.00
22047;BME280;11187;49.412;20.956;2023-02-22T04:39:20;94923.47;;;2.44;100.00
22047;BME280;11187;49.412;20.956;2023-02-22T04:42:14;94926.03;;;2.46;100.00
22047;BME280;11187;49.412;20.956;2023-02-22T04:44:47;94926.84;;;2.43;100.00
22047;BME280;11187;49.412;20.956;2023-02-22T04:47:41;94931.91;;;2.43;100.00
22047;BME280;11187;49.412;20.956;2023-02-22T04:50:35;94926.00;;;2.44;100.00
22047;BME280;11187;49.412;20.956;2023-02-22T04:53:09;94930.22;;;2.44;100.00
22047;BME280;11187;49.412;20.956;2023-02-22T04:56:03;94930.19;;;2.42;100.00
22047;BME280;11187;49.412;20.956;2023-02-22T04:58:36;94929.34;;;2.42;100.00
22047;BME280;11187;49.412;20.956;2023-02-22T05:01:23;94927.66;;;2.42;100.00
22047;BME280;11187;49.412;20.956;2023-02-22T05:03:56;94926.84;;;2.43;100.00
22047;BME280;11187;49.412;20.956;2023-02-22T05:06:43;94920.09;;;2.41;100.00
22047;BME280;11187;49.412;20.956;2023-02-22T05:09:20;94925.94;;;2.40;100.00
22047;BME280;11187;49.412;20.956;2023-02-22T05:12:13;94923.41;;;2.38;100.00
22047;BME280;11187;49.412;20.956;2023-02-22T05:15:07;94911.63;;;2.37;100.00
22047;BME280;11187;49.412;20.956;2023-02-22T05:18:01;94925.09;;;2.38;100.00
22047;BME280;11187;49.412;20.956;2023-02-22T05:20:34;94917.53;;;2.39;100.00
22047;BME280;11187;49.412;20.956;2023-02-22T05:23:28;94919.22;;;2.39;100.00
22047;BME280;11187;49.412;20.956;2023-02-22T05:26:22;94916.66;;;2.37;100.00
22047;BME280;11187;49.412;20.956;2023-02-22T05:28:55;94925.94;;;2.38;100.00
22047;BME280;11187;49.412;20.956;2023-02-22T05:31:42;94921.72;;;2.37;100.00
22047;BME280;11187;49.412;20.956;2023-02-22T05:34:16;94925.06;;;2.36;100.00
22047;BME280;11187;49.412;20.956;2023-02-22T05:37:09;94931.81;;;2.36;100.00
22047;BME280;11187;49.412;20.956;2023-02-22T05:39:42;94933.50;;;2.35;100.00
22047;BME280;11187;49.412;20.956;2023-02-22T05:42:29;94939.38;;;2.36;100.00
22047;BME280;11187;49.412;20.956;2023-02-22T05:45:03;94941.09;;;2.37;100.00
22047;BME280;11187;49.412;20.956;2023-02-22T05:47:49;94937.69;;;2.36;100.00
22047;BME280;11187;49.412;20.956;2023-02-22T05:50:24;94942.78;;;2.38;100.00
22047;BME280;11187;49.412;20.956;2023-02-22T05:53:18;94943.63;;;2.40;100.00
22047;BME280;11187;49.412;20.956;2023-02-22T05:56:12;94945.31;;;2.39;100.00
22047;BME280;11187;49.412;20.956;2023-02-22T05:58:45;94942.78;;;2.39;100.00
22047;BME280;11187;49.412;20.956;2023-02-22T06:01:32;94947.00;;;2.39;100.00
22047;BME280;11187;49.412;20.956;2023-02-22T06:04:06;94954.59;;;2.39;100.00
22047;BME280;11187;49.412;20.956;2023-02-22T06:06:52;94958.78;;;2.40;100.00
22047;BME280;11187;49.412;20.956;2023-02-22T06:09:25;94959.63;;;2.40;100.00
22047;BME280;11187;49.412;20.956;2023-02-22T06:12:12;94965.56;;;2.42;100.00
22047;BME280;11187;49.412;20.956;2023-02-22T06:14:45;94965.56;;;2.42;100.00
22047;BME280;11187;49.412;20.956;2023-02-22T06:17:39;94967.25;;;2.42;100.00
22047;BME280;11187;49.412;20.956;2023-02-22T06:20:17;94965.56;;;2.42;100.00
22047;BME280;11187;49.412;20.956;2023-02-22T06:23:10;94976.53;;;2.44;100.00
22047;BME280;11187;49.412;20.956;2023-02-22T06:25:43;94975.72;;;2.47;100.00
22047;BME280;11187;49.412;20.956;2023-02-22T06:28:37;94980.81;;;2.50;100.00
22047;BME280;11187;49.412;20.956;2023-02-22T06:31:11;94978.28;;;2.50;100.00
22047;BME280;11187;49.412;20.956;2023-02-22T06:33:57;94990.91;;;2.51;100.00
22047;BME280;11187;49.412;20.956;2023-02-22T06:36:30;94980.81;;;2.50;100.00
22047;BME280;11187;49.412;20.956;2023-02-22T06:39:24;94989.22;;;2.52;100.00
22047;BME280;11187;49.412;20.956;2023-02-22T06:41:58;94991.78;;;2.54;100.00
22047;BME280;11187;49.412;20.956;2023-02-22T06:44:45;94985.06;;;2.56;100.00
22047;BME280;11187;49.412;20.956;2023-02-22T06:47:18;94991.84;;;2.58;100.00
22047;BME280;11187;49.412;20.956;2023-02-22T06:50:22;94993.53;;;2.59;100.00
22047;BME280;11187;49.412;20.956;2023-02-22T06:52:56;94996.94;;;2.63;100.00
22047;BME280;11187;49.412;20.956;2023-02-22T06:55:43;94991.06;;;2.65;100.00
22047;BME280;11187;49.412;20.956;2023-02-22T06:58:16;94998.69;;;2.68;100.00
22047;BME280;11187;49.412;20.956;2023-02-22T07:01:11;95000.41;;;2.71;100.00
22047;BME280;11187;49.412;20.956;2023-02-22T07:03:47;95004.66;;;2.75;100.00
22047;BME280;11187;49.412;20.956;2023-02-22T07:06:34;95000.41;;;2.74;100.00
22047;BME280;11187;49.412;20.956;2023-02-22T07:09:07;95003.84;;;2.78;100.00
22047;BME280;11187;49.412;20.956;2023-02-22T07:12:01;95010.59;;;2.80;100.00
22047;BME280;11187;49.412;20.956;2023-02-22T07:14:34;95006.41;;;2.84;100.00
22047;BME280;11187;49.412;20.956;2023-02-22T07:17:21;95017.38;;;2.86;100.00
22047;BME280;11187;49.412;20.956;2023-02-22T07:19:54;95018.25;;;2.88;100.00
22047;BME280;11187;49.412;20.956;2023-02-22T07:22:49;95010.66;;;2.88;100.00
22047;BME280;11187;49.412;20.956;2023-02-22T07:25:42;95021.66;;;2.88;100.00
22047;BME280;11187;49.412;20.956;2023-02-22T07:28:15;95019.97;;;2.89;100.00
22047;BME280;11187;49.412;20.956;2023-02-22T07:31:02;95013.22;;;2.89;100.00
22047;BME280;11187;49.412;20.956;2023-02-22T07:33:36;95023.34;;;2.91;100.00
22047;BME280;11187;49.412;20.956;2023-02-22T07:36:23;95024.19;;;2.91;100.00
22047;BME280;11187;49.412;20.956;2023-02-22T07:38:56;95018.31;;;2.94;100.00
22047;BME280;11187;49.412;20.956;2023-02-22T07:41:43;95020.00;;;2.95;100.00
22047;BME280;11187;49.412;20.956;2023-02-22T07:44:17;95015.81;;;2.99;100.00
22047;BME280;11187;49.412;20.956;2023-02-22T07:47:03;95011.66;;;3.02;100.00
22047;BME280;11187;49.412;20.956;2023-02-22T07:49:37;95008.31;;;3.08;100.00
22047;BME280;11187;49.412;20.956;2023-02-22T07:52:30;95018.47;;;3.12;100.00
22047;BME280;11187;49.412;20.956;2023-02-22T07:55:04;95008.38;;;3.17;100.00
22047;BME280;11187;49.412;20.956;2023-02-22T07:57:53;95008.44;;;3.22;100.00
22047;BME280;11187;49.412;20.956;2023-02-22T08:00:33;95015.22;;;3.26;100.00
22047;BME280;11187;49.412;20.956;2023-02-22T08:03:30;95014.38;;;3.28;100.00
22047;BME280;11187;49.412;20.956;2023-02-22T08:06:24;95015.25;;;3.30;100.00
22047;BME280;11187;49.412;20.956;2023-02-22T08:08:57;95017.75;;;3.29;100.00
22047;BME280;11187;49.412;20.956;2023-02-22T08:11:44;95016.13;;;3.35;100.00
22047;BME280;11187;49.412;20.956;2023-02-22T08:14:17;95020.34;;;3.38;100.00
22047;BME280;11187;49.412;20.956;2023-02-22T08:17:04;95022.09;;;3.41;100.00
22047;BME280;11187;49.412;20.956;2023-02-22T08:19:38;95020.41;;;3.43;100.00
22047;BME280;11187;49.412;20.956;2023-02-22T08:22:24;95019.59;;;3.47;100.00
22047;BME280;11187;49.412;20.956;2023-02-22T08:24:59;95018.81;;;3.52;100.00
22047;BME280;11187;49.412;20.956;2023-02-22T08:27:47;95014.59;;;3.58;100.00
22047;BME280;11187;49.412;20.956;2023-02-22T08:30:21;95017.19;;;3.65;100.00
22047;BME280;11187;49.412;20.956;2023-02-22T08:33:20;95015.56;;;3.73;100.00
22047;BME280;11187;49.412;20.956;2023-02-22T08:35:54;95014.75;;;3.78;100.00
22047;BME280;11187;49.412;20.956;2023-02-22T08:38:40;95018.97;;;3.83;100.00
22047;BME280;11187;49.412;20.956;2023-02-22T08:41:13;95018.16;;;3.87;100.00
22047;BME280;11187;49.412;20.956;2023-02-22T08:44:07;95021.56;;;3.91;100.00
22047;BME280;11187;49.412;20.956;2023-02-22T08:47:02;95022.38;;;3.88;100.00
22047;BME280;11187;49.412;20.956;2023-02-22T08:49:35;95014.78;;;3.87;100.00
22047;BME280;11187;49.412;20.956;2023-02-22T08:52:21;95018.19;;;3.90;100.00
22047;BME280;11187;49.412;20.956;2023-02-22T08:54:55;95017.41;;;3.97;100.00
22047;BME280;11187;49.412;20.956;2023-02-22T08:57:48;95019.13;;;4.08;100.00
22047;BME280;11187;49.412;20.956;2023-02-22T09:00:42;95022.56;;;4.19;100.00
22047;BME280;11187;49.412;20.956;2023-02-22T09:03:36;95017.53;;;4.25;100.00
22047;BME280;11187;49.412;20.956;2023-02-22T09:06:10;95018.38;;;4.30;100.00
22047;BME280;11187;49.412;20.956;2023-02-22T09:08:56;95020.91;;;4.30;100.00
22047;BME280;11187;49.412;20.956;2023-02-22T09:11:30;95022.63;;;4.33;100.00
22047;BME280;11187;49.412;20.956;2023-02-22T09:14:16;95023.47;;;4.39;100.00
22047;BME280;11187;49.412;20.956;2023-02-22T09:16:49;95028.56;;;4.44;100.00
22047;BME280;11187;49.412;20.956;2023-02-22T09:19:36;95028.59;;;4.46;100.00
22047;BME280;11187;49.412;20.956;2023-02-22T09:22:10;95031.13;;;4.49;100.00
22047;BME280;11187;49.412;20.956;2023-02-22T09:25:07;95026.88;;;4.45;100.00
22047;BME280;11187;49.412;20.956;2023-02-22T09:28:01;95031.09;;;4.43;100.00
22047;BME280;11187;49.412;20.956;2023-02-22T09:30:55;95036.19;;;4.46;100.00
22047;BME280;11187;49.412;20.956;2023-02-22T09:33:29;95043.78;;;4.44;100.00
22047;BME280;11187;49.412;20.956;2023-02-22T09:36:15;95039.56;;;4.42;100.00
22047;BME280;11187;49.412;20.956;2023-02-22T09:38:51;95051.31;;;4.26;100.00
22047;BME280;11187;49.412;20.956;2023-02-22T09:44:46;95045.34;;;4.17;99.81
22047;BME280;11187;49.412;20.956;2023-02-22T09:47:44;95042.81;;;4.16;100.00
22047;BME280;11187;49.412;20.956;2023-02-22T09:50:56;95048.75;;;4.21;100.00
22047;BME280;11187;49.412;20.956;2023-02-22T09:53:41;95034.44;;;4.28;100.00
22047;BME280;11187;49.412;20.956;2023-02-22T09:56:17;95046.25;;;4.29;100.00
22047;BME280;11187;49.412;20.956;2023-02-22T09:59:07;95042.94;;;4.41;100.00
22047;BME280;11187;49.412;20.956;2023-02-22T10:01:47;95031.13;;;4.50;100.00
22047;BME280;11187;49.412;20.956;2023-02-22T10:04:48;95042.13;;;4.58;100.00
22047;BME280;11187;49.412;20.956;2023-02-22T10:07:29;95029.50;;;4.65;100.00
22047;BME280;11187;49.412;20.956;2023-02-22T10:10:21;95034.56;;;4.65;100.00
22047;BME280;11187;49.412;20.956;2023-02-22T10:27:47;95034.63;;;4.77;99.43
22047;BME280;11187;49.412;20.956;2023-02-22T10:30:53;95032.94;;;4.82;99.74
22047;BME280;11187;49.412;20.956;2023-02-22T10:33:32;95028.69;;;4.87;100.00
22047;BME280;11187;49.412;20.956;2023-02-22T10:36:22;95034.63;;;4.94;99.58
22047;BME280;11187;49.412;20.956;2023-02-22T10:39:50;95022.78;;;4.94;97.92
22047;BME280;11187;49.412;20.956;2023-02-22T10:42:11;95022.81;;;5.03;98.57
22047;BME280;11187;49.412;20.956;2023-02-22T10:44:45;95020.28;;;5.13;97.96
22047;BME280;11187;49.412;20.956;2023-02-22T10:47:32;95022.84;;;5.23;96.66
22047;BME280;11187;49.412;20.956;2023-02-22T10:50:06;95011.84;;;5.32;95.65
22047;BME280;11187;49.412;20.956;2023-02-22T10:52:54;95004.25;;;5.34;96.59
22047;BME280;11187;49.412;20.956;2023-02-22T10:55:27;95005.94;;;5.27;96.07
22047;BME280;11187;49.412;20.956;2023-02-22T10:58:21;95003.38;;;5.15;96.28
22047;BME280;11187;49.412;20.956;2023-02-22T11:04:26;94992.38;;;4.97;95.70
22047;BME280;11187;49.412;20.956;2023-02-22T11:07:40;94983.91;;;4.86;95.75
22047;BME280;11187;49.412;20.956;2023-02-22T11:10:30;94990.66;;;4.92;96.21
22047;BME280;11187;49.412;20.956;2023-02-22T11:16:34;94986.44;;;5.00;95.76
22047;BME280;11187;49.412;20.956;2023-02-22T11:19:30;94983.09;;;5.09;94.81
22047;BME280;11187;49.412;20.956;2023-02-22T11:22:36;94984.75;;;5.10;94.36
22047;BME280;11187;49.412;20.956;2023-02-22T11:25:20;94978.00;;;5.12;92.86
22047;BME280;11187;49.412;20.956;2023-02-22T11:28:20;94977.16;;;5.16;91.26
22047;BME280;11187;49.412;20.956;2023-02-22T11:31:15;94977.13;;;5.17;92.51
22047;BME280;11187;49.412;20.956;2023-02-22T11:34:26;94976.28;;;5.12;92.49
22047;BME280;11187;49.412;20.956;2023-02-22T11:40:21;94980.53;;;5.07;94.32
22047;BME280;11187;49.412;20.956;2023-02-22T11:43:17;94978.81;;;5.06;93.48
22047;BME280;11187;49.412;20.956;2023-02-22T11:45:57;94975.44;;;5.10;93.98
22047;BME280;11187;49.412;20.956;2023-02-22T11:55:23;94957.69;;;5.12;92.85
22047;BME280;11187;49.412;20.956;2023-02-22T12:01:42;94957.72;;;5.09;92.31
22047;BME280;11187;49.412;20.956;2023-02-22T12:11:13;94957.69;;;5.27;92.20
22047;BME280;11187;49.412;20.956;2023-02-22T12:14:06;94957.69;;;5.32;92.49
22047;BME280;11187;49.412;20.956;2023-02-22T12:17:17;94958.53;;;5.35;92.20
22047;BME280;11187;49.412;20.956;2023-02-22T12:23:28;94955.13;;;5.33;91.41
22047;BME280;11187;49.412;20.956;2023-02-22T12:26:15;94956.00;;;5.31;91.55
22047;BME280;11187;49.412;20.956;2023-02-22T12:35:27;94946.69;;;5.08;90.87
22047;BME280;11187;49.412;20.956;2023-02-22T12:41:35;94953.47;;;4.94;92.36
22047;BME280;11187;49.412;20.956;2023-02-22T12:44:21;94950.91;;;4.85;91.87
22047;BME280;11187;49.412;20.956;2023-02-22T12:47:21;94952.63;;;4.84;92.67
22047;BME280;11187;49.412;20.956;2023-02-22T12:50:21;94952.63;;;4.84;92.67
22047;BME280;11187;49.412;20.956;2023-02-22T12:53:08;94948.38;;;4.88;93.55
22047;BME280;11187;49.412;20.956;2023-02-22T12:59:52;94953.47;;;4.98;92.09
22047;BME280;11187;49.412;20.956;2023-02-22T13:05:55;94948.38;;;4.98;92.11
22047;BME280;11187;49.412;20.956;2023-02-22T13:08:36;94940.75;;;5.01;92.63
22047;BME280;11187;49.412;20.956;2023-02-22T13:14:37;94949.22;;;5.14;90.07
22047;BME280;11187;49.412;20.956;2023-02-22T13:20:40;94945.00;;;5.26;87.76
22047;BME280;11187;49.412;20.956;2023-02-22T13:24:07;94941.59;;;5.33;88.36
22047;BME280;11187;49.412;20.956;2023-02-22T13:29:33;94944.97;;;5.47;89.05
22047;BME280;11187;49.412;20.956;2023-02-22T13:41:42;94946.63;;;5.60;88.90
22047;BME280;11187;49.412;20.956;2023-02-22T13:53:13;94954.28;;;5.50;87.06
22047;BME280;11187;49.412;20.956;2023-02-22T13:55:52;94956.84;;;5.50;88.45
22047;BME280;11187;49.412;20.956;2023-02-22T13:58:49;94954.28;;;5.43;88.28
22047;BME280;11187;49.412;20.956;2023-02-22T14:01:42;94961.91;;;5.39;85.65
22047;BME280;11187;49.412;20.956;2023-02-22T14:04:40;94953.44;;;5.37;86.83
22047;BME280;11187;49.412;20.956;2023-02-22T14:10:44;94948.38;;;5.34;88.24
22047;BME280;11187;49.412;20.956;2023-02-22T14:16:33;94954.28;;;5.27;88.77
22047;BME280;11187;49.412;20.956;2023-02-22T14:19:20;94955.16;;;5.24;88.65
22047;BME280;11187;49.412;20.956;2023-02-22T14:21:58;94955.16;;;5.21;88.96
22047;BME280;11187;49.412;20.956;2023-02-22T14:24:47;94951.75;;;5.17;89.03
22047;BME280;11187;49.412;20.956;2023-02-22T14:27:23;94955.16;;;5.15;88.58
22047;BME280;11187;49.412;20.956;2023-02-22T14:30:42;94954.31;;;5.11;87.74
22047;BME280;11187;49.412;20.956;2023-02-22T14:36:56;94963.59;;;5.08;87.17
22047;BME280;11187;49.412;20.956;2023-02-22T14:39:56;94955.13;;;5.04;88.63
22047;BME280;11187;49.412;20.956;2023-02-22T14:42:36;94958.53;;;4.98;87.98
22047;BME280;11187;49.412;20.956;2023-02-22T14:45:47;94959.38;;;4.96;87.30
22047;BME280;11187;49.412;20.956;2023-02-22T14:48:35;94960.22;;;4.98;87.72
22047;BME280;11187;49.412;20.956;2023-02-22T14:51:36;94960.22;;;4.95;87.94
22047;BME280;11187;49.412;20.956;2023-02-22T14:54:20;94961.06;;;4.94;89.27
22047;BME280;11187;49.412;20.956;2023-02-22T14:57:20;94955.97;;;4.88;89.31
22047;BME280;11187;49.412;20.956;2023-02-22T15:00:39;94956.81;;;4.85;89.37
22047;BME280;11187;49.412;20.956;2023-02-22T15:03:32;94962.75;;;4.78;89.32
22047;BME280;11187;49.412;20.956;2023-02-22T15:06:34;94956.81;;;4.73;90.38
22047;BME280;11187;49.412;20.956;2023-02-22T15:12:27;94960.19;;;4.64;89.44
22047;BME280;11187;49.412;20.956;2023-02-22T15:15:22;94960.16;;;4.63;89.80
22047;BME280;11187;49.412;20.956;2023-02-22T15:18:20;94967.78;;;4.59;90.91
22047;BME280;11187;49.412;20.956;2023-02-22T15:20:57;94977.88;;;4.52;90.94
22047;BME280;11187;49.412;20.956;2023-02-22T15:24:04;94969.44;;;4.47;90.57
22047;BME280;11187;49.412;20.956;2023-02-22T15:26:40;94969.41;;;4.37;88.71
22047;BME280;11187;49.412;20.956;2023-02-22T15:29:43;94974.47;;;4.33;90.96
22047;BME280;11187;49.412;20.956;2023-02-22T15:37:46;94974.41;;;4.19;89.51
22047;BME280;11187;49.412;20.956;2023-02-22T15:40:39;94984.53;;;4.16;90.33
22047;BME280;11187;49.412;20.956;2023-02-22T15:43:35;94984.50;;;4.13;89.51
22047;BME280;11187;49.412;20.956;2023-02-22T15:46:10;94989.59;;;4.11;89.60
22047;BME280;11187;49.412;20.956;2023-02-22T15:49:16;94991.25;;;4.08;90.25
22047;BME280;11187;49.412;20.956;2023-02-22T15:52:23;94997.16;;;4.02;89.85
22047;BME280;11187;49.412;20.956;2023-02-22T15:55:19;94998.81;;;4.02;90.44
22047;BME280;11187;49.412;20.956;2023-02-22T15:58:06;94993.75;;;4.00;90.66
22047;BME280;11187;49.412;20.956;2023-02-22T16:01:06;95003.03;;;3.96;90.52
22047;BME280;11187;49.412;20.956;2023-02-22T16:04:02;95000.47;;;3.93;91.60
22047;BME280;11187;49.412;20.956;2023-02-22T16:07:07;95001.31;;;3.89;90.88
22047;BME280;11187;49.412;20.956;2023-02-22T16:09:50;95011.41;;;3.88;90.69
22047;BME280;11187;49.412;20.956;2023-02-22T16:12:45;95013.94;;;3.88;91.55
22047;BME280;11187;49.412;20.956;2023-02-22T16:15:18;95013.94;;;3.85;91.61
22047;BME280;11187;49.412;20.956;2023-02-22T16:18:32;95019.84;;;3.82;92.30
22047;BME280;11187;49.412;20.956;2023-02-22T16:22:05;95023.19;;;3.80;93.16
22047;BME280;11187;49.412;20.956;2023-02-22T16:24:45;95024.84;;;3.76;93.68
22047;BME280;11187;49.412;20.956;2023-02-22T16:27:39;95031.59;;;3.72;93.60
22047;BME280;11187;49.412;20.956;2023-02-22T16:33:13;95039.13;;;3.68;93.48
22047;BME280;11187;49.412;20.956;2023-02-22T16:35:48;95036.59;;;3.65;93.28
22047;BME280;11187;49.412;20.956;2023-02-22T16:38:43;95037.41;;;3.62;94.27
22047;BME280;11187;49.412;20.956;2023-02-22T16:41:37;95039.06;;;3.59;94.24
22047;BME280;11187;49.412;20.956;2023-02-22T16:44:11;95044.97;;;3.58;94.46
22047;BME280;11187;49.412;20.956;2023-02-22T16:47:08;95050.00;;;3.53;94.36
22047;BME280;11187;49.412;20.956;2023-02-22T16:49:44;95046.63;;;3.51;93.77
22047;BME280;11187;49.412;20.956;2023-02-22T16:52:38;95055.88;;;3.49;95.50
22047;BME280;11187;49.412;20.956;2023-02-22T16:55:13;95049.97;;;3.45;95.71
22047;BME280;11187;49.412;20.956;2023-02-22T16:58:02;95055.81;;;3.43;96.43
22047;BME280;11187;49.412;20.956;2023-02-22T17:00:36;95059.19;;;3.40;95.52
22047;BME280;11187;49.412;20.956;2023-02-22T17:03:24;95065.09;;;3.39;96.17
22047;BME280;11187;49.412;20.956;2023-02-22T17:05:58;95059.16;;;3.34;97.08